Pagrindinis puslapis
METAR-TAF:

METAR-TAF

Oro uostai :

Sohagas, Egiptas

platuma: 26-20-25N, ilguma: 31-44-20E, Aukštis: 70 m

Dabartinis oras

Ataskaita buvo paskelbta 1 valandą ir 29 minutes, ne 12:00 UTC
Vėjas 14 kt iš Šiaurės/Šiaurės Vakarų
Temperatūra 38°C
Drėgmė 20%
Slėgis 1003 hPa
Matomumas 10 km arba daugiau
nėra debesų žemiau 1500 m ir nėra kamuolinių lietaus debesų

METAR: HESG 181200Z 34014KT CAVOK 38/11 Q1003 NOSIG

Laikas: 15:29 (13:29 UTC)

Prognozė

Ataskaita buvo paskelbta 2 valandos ir 29 minutes, ne 11:00 UTC
Prognozė galioja nuo 18 metu 12 UTC su 19 metu 18 UTC
Vėjas 10 kt iš Šiaurės Vakarų su gūsio iki 20 kt
Matomumas 10 km arba daugiau
nėra debesų žemiau 1500 m ir nėra kamuolinių lietaus debesų

TAF: HESG 181100Z 1812/1918 31010G20KT CAVOK

Orai ataskaitas ir orų prognozės (METAR, TAF).

turimą stotys yra geltonos ir raudonos taškus žemėlapyje.

Perkelti pele per norėdami pamatyti stoties vardą.

Tada spustelėkite, norėdami matyti oro stebėjimo ir prognozės.

Norėdami pakeisti žemėlapį: spustelėkite ant žalios mygtukų su juodo kryžiaus žemyn,; žalią mygtuką su brūkšneliu, jei norite nutolinti; arba žalių rodyklių gretimoms žemėlapius.


METAR-TAF: